VTPH/HHQ METAR and TAF weather

Enter ICAO airport designator
Station Type Date Time Source
VTPH METAR 2021/04/18 03:00 UTC NOAA

VTPH 180300Z 08006KT 9999 FEW030 32/24 Q1012 NOSIG


Station Type Date Time Source
VTPH Decoded METAR 2021/04/18 03:00 UTC NOAA

Hua Hin, Thailand (VTPH) 12-35N 099-57E 6M
Apr 17, 2021 - 11:00 PM EDT / 2021.04.18 0300 UTC
Wind: from the E (080 degrees) at 7 MPH (6 KT):0
Visibility: greater than 7 mile(s):0
Sky conditions: mostly clear
Temperature: 89 F (32 C)
Heat index: 98.4 F (36.9 C):1
Dew Point: 75 F (24 C)
Relative Humidity: 62%
Pressure (altimeter): 29.88 in. Hg (1012 hPa)
ob: VTPH 180300Z 08006KT 9999 FEW030 32/24 Q1012 NOSIG
cycle: 3

Station Type Date Time Source
VTPH TAF 2021/04/17 18:00 UTC NOAA

TAF VTPH 171700Z 1718/1818 14005KT 9999 FEW020

Example: see airport list